Time;durP1;ratioP1;P1;durP2;ratioP2;P2;SDS_P1;SDS_P2;PMS_P1;PMS_P2;Temp;Humidity;BMP_temperature;BMP_pressure;BME280_temperature;BME280_humidity;BME280_pressure;Samples;Min_cycle;Max_cycle;Signal;HPM_P1;HPM_P2
2022/04/14 00:01:11;;;;;;;;;4.33;1.33;;;;;15.59;67.35;101715.06;5056867;28;45392;-46
2022/04/14 00:03:36;;;;;;;;;8.33;8.33;;;;;15.53;67.80;101713.84;5056653;28;46173;-41
2022/04/14 00:06:02;;;;;;;;;10.67;9.00;;;;;15.49;68.03;101709.78;5056938;28;45400;-44
2022/04/14 00:08:27;;;;;;;;;6.00;5.00;;;;;15.46;68.17;101704.72;5056854;28;45344;-45
2022/04/14 00:10:52;;;;;;;;;10.33;9.00;;;;;15.31;68.29;101685.69;5057115;28;45340;-45
2022/04/14 00:13:18;;;;;;;;;10.33;7.67;;;;;15.31;68.38;101698.25;5056591;28;46133;-44
2022/04/14 00:15:43;;;;;;;;;8.00;6.67;;;;;15.35;68.50;101710.34;5056466;28;45214;-45
2022/04/14 00:18:08;;;;;;;;;10.67;7.67;;;;;15.29;68.54;101705.59;5056925;28;45678;-45
2022/04/14 00:20:34;;;;;;;;;5.33;4.33;;;;;15.29;68.66;101710.94;5056922;28;45322;-43
2022/04/14 00:22:59;;;;;;;;;10.00;6.00;;;;;15.26;68.82;101704.06;5056949;27;45842;-44
2022/04/14 00:25:25;;;;;;;;;8.00;6.33;;;;;15.23;68.68;101705.22;5056496;28;45438;-55
2022/04/14 00:27:50;;;;;;;;;10.00;8.00;;;;;15.21;68.50;101703.66;5056868;28;45303;-51
2022/04/14 00:30:16;;;;;;;;;8.00;5.00;;;;;15.23;68.76;101707.91;5056772;28;45427;-44
2022/04/14 00:32:41;;;;;;;;;8.00;5.00;;;;;15.23;68.76;101707.91;5056136;28;46059;-43
2022/04/14 00:35:07;;;;;;;;;9.00;7.00;;;;;15.21;68.98;101707.22;5056409;28;45434;-48
2022/04/14 00:37:32;;;;;;;;;10.33;8.00;;;;;15.18;69.14;101702.16;5056385;28;45293;-45
2022/04/14 00:39:58;;;;;;;;;10.00;9.00;;;;;15.17;69.26;101702.31;5056678;28;45341;-47
2022/04/14 00:42:23;;;;;;;;;8.00;8.00;;;;;15.17;69.41;101694.28;5056020;28;46227;-44
2022/04/14 00:44:49;;;;;;;;;6.00;6.00;;;;;15.17;69.59;101700.47;5056160;28;45641;-44
2022/04/14 00:47:15;;;;;;;;;9.00;7.67;;;;;15.16;69.35;101701.44;5056243;28;45328;-48
2022/04/14 00:49:41;;;;;;;;;9.67;8.00;;;;;15.18;69.44;101696.81;5056398;28;45465;-46
2022/04/14 00:52:07;;;;;;;;;10.67;8.00;;;;;15.16;69.91;101704.13;5056167;28;46333;-46
2022/04/14 00:54:33;;;;;;;;;7.00;5.33;;;;;15.15;69.88;101698.94;5056131;28;45380;-45
2022/04/14 00:56:59;;;;;;;;;9.67;7.33;;;;;15.15;69.58;101704.28;5059177;28;45336;-45
2022/04/14 00:59:25;;;;;;;;;10.67;9.00;;;;;15.14;69.72;101698.09;5059832;28;45454;-46
2022/04/14 01:01:51;;;;;;;;;12.33;9.00;;;;;15.14;69.75;101703.47;5059003;28;45392;-44
2022/04/14 01:04:17;;;;;;;;;11.67;10.00;;;;;15.05;69.57;101690.97;5059404;28;45350;-45
2022/04/14 01:06:44;;;;;;;;;12.33;8.67;;;;;15.12;69.67;101704.59;5059639;28;45373;-44
2022/04/14 01:09:16;;;;;;;;;2.33;2.00;;;;;15.12;70.08;101702.75;5059823;28;45355;-44
2022/04/14 01:11:46;;;;;;;;;9.00;8.33;;;;;15.12;70.02;101708.13;5059611;28;47142;-46
2022/04/14 01:14:34;;;;;;;;;13.33;9.67;;;;;15.10;69.41;101707.44;5059310;28;45420;-43
2022/04/14 01:17:02;;;;;;;;;9.00;8.00;;;;;15.10;69.76;101704.75;5059122;28;45372;-43
2022/04/14 01:19:28;;;;;;;;;17.00;12.33;;;;;15.09;69.97;101710.28;5059234;28;45502;-49
2022/04/14 01:21:57;;;;;;;;;18.67;14.33;;;;;15.07;69.99;101707.75;5058923;28;45320;-45
2022/04/14 01:24:22;;;;;;;;;18.00;16.00;;;;;15.02;70.24;101704.69;5058911;28;45461;-43
2022/04/14 01:26:49;;;;;;;;;14.67;13.00;;;;;15.03;69.95;101709.03;5058994;28;45419;-46
2022/04/14 01:29:25;;;;;;;;;14.33;12.67;;;;;15.01;70.24;101716.41;5059369;27;45459;-45
2022/04/14 01:31:52;;;;;;;;;14.00;10.67;;;;;14.96;70.22;101694.59;5058550;28;46228;-45
2022/04/14 01:34:18;;;;;;;;;17.67;12.33;;;;;15.00;70.27;101706.69;5058873;28;45297;-44
2022/04/14 01:36:44;;;;;;;;;14.33;14.33;;;;;14.98;70.35;101711.34;5059074;28;45441;-48
2022/04/14 01:39:11;;;;;;;;;22.00;20.67;;;;;14.96;70.28;101711.50;5059003;28;45398;-44
2022/04/14 01:41:41;;;;;;;;;19.33;19.33;;;;;14.82;70.73;101701.28;5058441;28;46274;-44
2022/04/14 01:44:07;;;;;;;;;22.00;18.33;;;;;14.90;70.99;101713.94;5058879;28;45230;-43
2022/04/14 01:46:32;;;;;;;;;25.67;16.67;;;;;14.88;71.02;101715.94;5058756;28;45401;-44
2022/04/14 01:48:59;;;;;;;;;21.67;17.00;;;;;14.84;71.53;101714.53;5058696;28;45436;-44
2022/04/14 01:51:25;;;;;;;;;19.67;16.67;;;;;14.90;71.52;101720.13;5058680;28;46961;-48
2022/04/14 01:53:51;;;;;;;;;18.00;18.00;;;;;14.93;71.16;101708.28;5058551;28;45359;-44
2022/04/14 01:56:18;;;;;;;;;21.33;17.33;;;;;14.92;70.91;101717.31;5058363;28;45437;-44
2022/04/14 01:58:45;;;;;;;;;26.33;21.33;;;;;14.91;71.08;101711.09;5058714;28;45272;-46
2022/04/14 02:01:10;;;;;;;;;21.00;18.00;;;;;14.87;71.58;101709.69;5058239;28;45241;-44
2022/04/14 02:03:36;;;;;;;;;26.33;21.67;;;;;14.85;71.61;101711.69;5058274;28;45356;-45
2022/04/14 02:06:01;;;;;;;;;15.67;14.67;;;;;14.76;71.38;101698.38;5058471;28;45239;-46
2022/04/14 02:08:26;;;;;;;;;22.33;19.67;;;;;14.81;71.24;101701.44;5058746;28;45369;-45
2022/04/14 02:10:52;;;;;;;;;20.33;18.67;;;;;14.81;71.51;101709.47;5058281;28;46286;-44
2022/04/14 02:13:17;;;;;;;;;18.33;18.33;;;;;14.77;71.76;101710.78;5058165;28;45322;-44
2022/04/14 02:15:42;;;;;;;;;21.67;17.67;;;;;14.75;72.01;101707.38;5058384;28;45506;-43
2022/04/14 02:18:08;;;;;;;;;20.00;17.00;;;;;14.75;72.11;101702.03;5058226;28;45397;-43
2022/04/14 02:20:33;;;;;;;;;17.00;15.00;;;;;14.74;71.69;101698.50;5058311;28;45372;-42
2022/04/14 02:22:58;;;;;;;;;17.67;17.00;;;;;14.79;71.82;101706.09;5057955;28;45524;-44
2022/04/14 02:25:24;;;;;;;;;21.67;18.33;;;;;14.80;72.12;101702.44;5058336;28;45393;-55
2022/04/14 02:27:49;;;;;;;;;16.67;16.33;;;;;14.79;71.74;101698.94;5058298;28;45297;-43
2022/04/14 02:30:15;;;;;;;;;16.67;16.67;;;;;14.79;72.16;101695.38;5058006;28;46019;-43
2022/04/14 02:32:40;;;;;;;;;18.33;17.67;;;;;14.79;72.04;101692.69;5057802;28;45419;-53
2022/04/14 02:35:06;;;;;;;;;20.67;19.67;;;;;14.80;71.77;101699.75;5058021;28;45730;-48
2022/04/14 02:37:31;;;;;;;;;24.67;18.67;;;;;14.79;72.23;101704.28;5058018;28;45372;-55
2022/04/14 02:39:56;;;;;;;;;22.33;20.67;;;;;14.79;71.82;101698.94;5057851;28;45313;-55
2022/04/14 02:42:22;;;;;;;;;24.00;19.33;;;;;14.79;71.95;101701.59;5057929;28;45214;-51
2022/04/14 02:44:47;;;;;;;;;27.33;18.33;;;;;14.73;72.07;101702.19;5057936;28;45162;-44
2022/04/14 02:47:12;;;;;;;;;22.33;17.67;;;;;14.76;72.08;101698.38;5058071;28;45528;-56
2022/04/14 02:49:38;;;;;;;;;18.67;16.00;;;;;14.73;71.91;101700.34;5057752;28;46263;-43
2022/04/14 02:52:03;;;;;;;;;20.67;17.33;;;;;14.72;72.45;101706.72;5057615;28;45181;-42
2022/04/14 02:54:29;;;;;;;;;10.67;7.00;;;;;14.72;72.29;101706.72;5057771;28;45297;-43
2022/04/14 02:56:54;;;;;;;;;20.00;17.00;;;;;14.73;72.42;101707.53;5057530;28;45261;-44
2022/04/14 02:59:19;;;;;;;;;19.33;18.33;;;;;14.72;72.15;101714.75;5058393;28;45427;-46
2022/04/14 03:01:45;;;;;;;;;20.33;20.00;;;;;14.72;72.24;101709.38;5057948;28;45191;-44
2022/04/14 03:04:10;;;;;;;;;19.67;17.00;;;;;14.75;72.24;101704.72;5058265;28;45469;-58
2022/04/14 03:06:36;;;;;;;;;20.67;19.67;;;;;14.72;72.76;101701.34;5058648;28;45312;-43
2022/04/14 03:09:01;;;;;;;;;23.00;18.67;;;;;14.72;72.32;101711.22;5058078;28;46062;-43
2022/04/14 03:11:27;;;;;;;;;23.33;20.33;;;;;14.67;72.14;101700.97;5058325;28;45261;-44
2022/04/14 03:13:52;;;;;;;;;21.33;14.00;;;;;14.68;72.42;101702.66;5058398;28;45328;-46
2022/04/14 03:16:17;;;;;;;;;30.33;24.00;;;;;14.67;72.06;101714.34;5058305;28;45314;-44
2022/04/14 03:18:43;;;;;;;;;19.00;18.67;;;;;14.66;71.85;101704.66;5056587;28;46076;-46
2022/04/14 03:21:11;;;;;;;;;25.00;20.00;;;;;14.63;72.12;101710.28;5057122;28;45441;-47
2022/04/14 03:23:37;;;;;;;;;26.33;23.00;;;;;14.62;72.66;101707.75;5057398;28;45522;-44
2022/04/14 03:26:03;;;;;;;;;25.33;21.67;;;;;14.60;72.46;101715.94;5057374;28;45483;-45
2022/04/14 03:28:29;;;;;;;;;25.33;22.33;;;;;14.58;72.78;101717.94;5057165;28;46393;-43
2022/04/14 03:30:54;;;;;;;;;19.67;19.67;;;;;14.57;73.56;101720.75;5057026;28;45289;-43
2022/04/14 03:33:20;;;;;;;;;19.33;18.67;;;;;14.59;73.03;101726.81;5057338;28;45727;-44
2022/04/14 03:35:45;;;;;;;;;25.67;20.67;;;;;14.60;72.81;101728.50;5057208;28;45400;-55
2022/04/14 03:38:10;;;;;;;;;22.33;19.67;;;;;14.59;72.79;101718.78;5057068;28;45995;-54
2022/04/14 03:40:36;;;;;;;;;25.67;19.33;;;;;14.61;73.05;101724.81;5056956;28;45313;-55
2022/04/14 03:43:01;;;;;;;;;24.33;21.33;;;;;14.58;72.60;101722.41;5056955;28;45498;-49
2022/04/14 03:45:26;;;;;;;;;21.33;18.33;;;;;14.57;72.74;101729.63;5057316;28;45420;-43
2022/04/14 03:47:52;;;;;;;;;26.33;19.00;;;;;14.56;72.11;101721.75;5056706;28;45434;-49
2022/04/14 03:50:17;;;;;;;;;25.33;20.00;;;;;14.51;71.39;101724.88;5056597;28;45417;-43
2022/04/14 03:52:42;;;;;;;;;27.67;23.00;;;;;14.48;73.29;101727.81;5056983;28;45408;-44
2022/04/14 03:55:08;;;;;;;;;27.00;21.00;;;;;14.41;73.11;101724.03;5057083;28;45383;-44
2022/04/14 03:57:33;;;;;;;;;20.67;20.67;;;;;14.42;73.32;101731.91;5056694;28;45301;-44
2022/04/14 03:59:59;;;;;;;;;29.00;26.33;;;;;14.37;73.16;101722.66;5056602;28;45499;-54
2022/04/14 04:02:24;;;;;;;;;30.00;23.00;;;;;14.42;73.22;101739.13;5056719;28;45454;-43
2022/04/14 04:04:49;;;;;;;;;31.33;20.67;;;;;14.41;73.36;101740.09;5056554;28;45352;-48
2022/04/14 04:07:15;;;;;;;;;23.00;20.67;;;;;14.40;73.85;101743.75;5056582;28;47068;-46
2022/04/14 04:09:40;;;;;;;;;19.33;17.33;;;;;14.36;73.73;101737.84;5056558;28;45440;-46
2022/04/14 04:12:06;;;;;;;;;26.33;22.00;;;;;14.39;73.59;101742.91;5056523;28;45289;-55
2022/04/14 04:14:32;;;;;;;;;28.00;24.00;;;;;14.40;73.68;101744.59;5056858;28;45348;-42
2022/04/14 04:16:57;;;;;;;;;26.67;23.00;;;;;14.39;73.55;101740.25;5056170;28;45229;-43
2022/04/14 04:19:22;;;;;;;;;30.33;24.00;;;;;14.39;73.87;101744.75;5056449;28;45276;-49
2022/04/14 04:21:48;;;;;;;;;26.33;23.00;;;;;14.39;73.71;101739.41;5056603;28;45472;-54
2022/04/14 04:24:13;;;;;;;;;23.00;15.67;;;;;14.36;73.98;101729.81;5056810;28;45348;-43
2022/04/14 04:26:38;;;;;;;;;24.33;21.33;;;;;14.38;73.94;101735.03;5056476;28;46136;-43
2022/04/14 04:29:04;;;;;;;;;28.67;24.67;;;;;14.33;73.95;101723.94;5056387;28;45327;-49
2022/04/14 04:31:29;;;;;;;;;27.67;26.33;;;;;14.30;73.34;101721.56;5059069;28;45264;-49
2022/04/14 04:33:55;;;;;;;;;28.00;27.67;;;;;14.27;74.28;101721.84;5060145;28;45433;-45
2022/04/14 04:36:21;;;;;;;;;27.00;23.00;;;;;14.20;74.33;101722.44;5058194;28;46989;-49
2022/04/14 04:38:47;;;;;;;;;24.00;22.33;;;;;14.21;74.44;101732.16;5059718;28;45284;-48
2022/04/14 04:41:12;;;;;;;;;33.00;28.33;;;;;14.11;74.24;101717.09;5059728;28;45424;-46
2022/04/14 04:43:38;;;;;;;;;30.33;26.00;;;;;14.19;74.50;101742.13;5060038;28;45321;-54
2022/04/14 04:46:03;;;;;;;;;26.67;25.33;;;;;14.19;74.41;101743.97;5059692;28;46184;-43
2022/04/14 04:48:29;;;;;;;;;30.33;26.33;;;;;14.19;74.56;101749.31;5059587;28;45415;-43
2022/04/14 04:50:54;;;;;;;;;16.67;11.33;;;;;14.15;74.70;101758.63;5059540;28;45455;-44
2022/04/14 04:53:20;;;;;;;;;33.33;27.00;;;;;14.16;74.58;101755.81;5060124;28;45379;-43
2022/04/14 04:55:45;;;;;;;;;27.33;27.00;;;;;14.13;74.47;101760.63;5059500;28;47145;-46
2022/04/14 04:58:10;;;;;;;;;26.67;24.67;;;;;14.11;74.75;101770.63;5059866;28;45444;-45
2022/04/14 05:00:36;;;;;;;;;31.33;25.33;;;;;14.07;74.19;101772.72;5059976;28;45498;-44
2022/04/14 05:03:06;;;;;;;;;36.33;28.00;;;;;14.06;74.57;101768.38;5059974;28;45380;-46
2022/04/14 05:05:31;;;;;;;;;31.00;25.67;;;;;14.04;74.61;101775.72;5059238;28;47122;-46
2022/04/14 05:07:57;;;;;;;;;22.33;22.00;;;;;14.01;75.07;101776.00;5059298;28;45424;-43
2022/04/14 05:10:22;;;;;;;;;34.67;30.67;;;;;13.92;74.97;101756.31;5059641;28;45441;-46
2022/04/14 05:12:48;;;;;;;;;27.67;25.00;;;;;14.00;75.23;101774.31;5058005;28;45468;-46
2022/04/14 05:15:13;;;;;;;;;27.00;23.67;;;;;14.01;75.15;101764.44;5059359;28;46446;-44
2022/04/14 05:17:38;;;;;;;;;25.67;25.67;;;;;14.02;74.88;101775.00;5059238;28;45336;-44
2022/04/14 05:20:04;;;;;;;;;31.67;26.67;;;;;14.04;75.12;101772.19;5057786;28;45423;-46
2022/04/14 05:22:30;;;;;;;;;30.33;26.33;;;;;14.07;75.17;101766.53;5058001;28;45312;-44
2022/04/14 05:24:55;;;;;;;;;22.00;20.00;;;;;14.08;74.85;101766.41;5058918;28;46200;-46
2022/04/14 05:27:20;;;;;;;;;31.00;25.67;;;;;14.11;74.70;101771.44;5059036;28;45276;-48
2022/04/14 05:29:46;;;;;;;;;29.33;23.67;;;;;14.12;74.83;101769.66;5059045;28;45644;-44
2022/04/14 05:32:11;;;;;;;;;31.00;27.00;;;;;14.16;74.56;101773.72;5059162;28;45376;-48
2022/04/14 05:34:36;;;;;;;;;30.33;25.33;;;;;14.17;74.81;101776.25;5058650;28;46319;-46
2022/04/14 05:37:02;;;;;;;;;33.33;27.00;;;;;14.19;74.60;101784.94;5058672;28;45223;-56
2022/04/14 05:39:27;;;;;;;;;33.00;26.33;;;;;14.19;74.45;101782.28;5059054;28;45480;-43
2022/04/14 05:41:52;;;;;;;;;30.33;26.67;;;;;14.20;74.26;101781.31;5058534;28;45468;-54
2022/04/14 05:44:19;;;;;;;;;33.67;31.67;;;;;14.14;74.45;101779.19;5058729;28;45991;-47
2022/04/14 05:46:44;;;;;;;;;44.67;37.00;;;;;14.21;74.24;101782.16;5058771;28;45483;-44
2022/04/14 05:49:12;;;;;;;;;38.33;30.67;;;;;14.20;74.00;101789.34;5058751;28;45770;-55
2022/04/14 05:51:37;;;;;;;;;38.33;32.33;;;;;14.20;74.38;101794.69;5058948;28;45380;-44
2022/04/14 05:54:04;;;;;;;;;35.67;32.00;;;;;14.24;74.21;101797.91;5058498;28;45388;-44
2022/04/14 05:56:30;;;;;;;;;38.00;32.67;;;;;14.28;74.04;101795.78;5058351;28;45313;-51
2022/04/14 05:58:55;;;;;;;;;36.33;33.00;;;;;14.29;74.10;101786.78;5058411;28;45536;-43
2022/04/14 06:01:21;;;;;;;;;32.67;30.67;;;;;14.33;74.05;101797.06;5058681;28;45314;-42
2022/04/14 06:03:46;;;;;;;;;34.00;32.00;;;;;14.33;73.23;101789.03;5058183;28;45485;-43
2022/04/14 06:06:13;;;;;;;;;38.00;33.67;;;;;14.36;73.53;101790.53;5058253;28;45534;-43
2022/04/14 06:08:39;;;;;;;;;34.67;32.67;;;;;14.29;73.82;101781.44;5058578;28;45312;-49
2022/04/14 06:11:08;;;;;;;;;40.67;34.67;;;;;14.40;73.56;101802.66;5058669;28;45452;-53
2022/04/14 06:13:33;;;;;;;;;38.00;32.33;;;;;14.43;74.01;101802.38;5058162;28;45424;-46
2022/04/14 06:15:59;;;;;;;;;42.67;35.00;;;;;14.37;73.62;101786.91;5058268;28;45365;-46
2022/04/14 06:18:24;;;;;;;;;41.00;33.67;;;;;14.48;73.65;101794.72;5057168;28;45407;-51
2022/04/14 06:20:52;;;;;;;;;27.67;23.33;;;;;14.50;73.29;101791.97;5058652;28;45395;-44
2022/04/14 06:23:18;;;;;;;;;39.33;35.33;;;;;14.55;73.32;101792.34;5057291;28;46355;-54
2022/04/14 06:25:49;;;;;;;;;35.00;34.00;;;;;14.59;72.59;101797.28;5056900;28;45352;-45
2022/04/14 06:28:16;;;;;;;;;38.00;34.67;;;;;14.61;73.45;101807.81;5058273;28;45367;-46
2022/04/14 06:30:42;;;;;;;;;37.67;33.67;;;;;14.62;72.88;101799.66;5058462;28;45325;-57
2022/04/14 06:33:07;;;;;;;;;43.00;37.00;;;;;14.62;73.33;101807.69;5057921;28;47225;-45
2022/04/14 06:35:33;;;;;;;;;39.33;34.33;;;;;14.62;73.45;101804.16;5058663;28;45356;-46
2022/04/14 06:37:58;;;;;;;;;51.67;37.00;;;;;14.69;73.16;101816.81;5058384;28;45475;-43
2022/04/14 06:40:24;;;;;;;;;38.67;35.33;;;;;14.78;73.17;101817.75;5058345;28;45339;-51
2022/04/14 06:42:50;;;;;;;;;44.67;38.00;;;;;14.91;72.69;101830.81;5057709;28;46318;-50
2022/04/14 06:45:16;;;;;;;;;47.00;37.67;;;;;15.16;72.06;101827.44;5057794;28;45195;-47
2022/04/14 06:47:41;;;;;;;;;41.33;36.67;;;;;15.41;71.31;101825.00;5058054;28;45171;-45
2022/04/14 06:50:07;;;;;;;;;40.33;35.67;;;;;15.54;70.94;101825.47;5057966;28;45443;-46
2022/04/14 06:52:32;;;;;;;;;46.67;37.33;;;;;15.61;70.79;101831.09;5056660;28;46285;-43
2022/04/14 06:54:58;;;;;;;;;43.00;35.00;;;;;15.61;70.43;101817.69;5057416;28;45439;-44
2022/04/14 06:57:24;;;;;;;;;38.00;36.00;;;;;15.83;70.36;101832.47;5057585;28;45495;-42
2022/04/14 06:59:49;;;;;;;;;45.33;38.00;;;;;15.97;69.87;101826.59;5057651;28;45486;-44
2022/04/14 07:02:15;;;;;;;;;40.00;34.33;;;;;16.17;69.61;101836.09;5057390;28;45466;-42
2022/04/14 07:04:40;;;;;;;;;44.67;35.67;;;;;16.35;68.73;101838.78;5057542;28;45427;-42
2022/04/14 07:07:06;;;;;;;;;49.67;37.00;;;;;16.44;67.93;101832.44;5057336;28;45308;-46
2022/04/14 07:09:34;;;;;;;;;47.67;35.67;;;;;16.65;67.02;101837.44;5057587;28;45395;-42
2022/04/14 07:12:01;;;;;;;;;46.33;36.33;;;;;16.84;66.55;101840.91;5057356;28;46269;-43
2022/04/14 07:14:28;;;;;;;;;43.67;37.00;;;;;16.90;65.84;101841.13;5057351;28;45355;-42
2022/04/14 07:16:54;;;;;;;;;43.33;36.00;;;;;16.97;65.70;101841.28;5057313;28;45430;-44
2022/04/14 07:19:19;;;;;;;;;36.67;33.00;;;;;17.03;65.15;101848.72;5073038;28;45538;-46
2022/04/14 07:21:46;;;;;;;;;40.33;33.00;;;;;17.06;64.74;101839.47;5056991;28;46297;-46
2022/04/14 07:24:11;;;;;;;;;42.00;33.00;;;;;17.08;64.77;101849.09;5057042;28;45427;-45
2022/04/14 07:26:36;;;;;;;;;38.33;33.00;;;;;17.04;65.00;101841.50;5057424;28;45784;-45
2022/04/14 07:29:03;;;;;;;;;34.00;26.67;;;;;17.00;64.40;101840.16;5057395;28;45385;-42
2022/04/14 07:31:31;;;;;;;;;36.00;32.33;;;;;17.00;64.27;101848.22;5056946;28;46248;-42
2022/04/14 07:33:57;;;;;;;;;35.00;31.00;;;;;16.90;64.70;101851.03;5056986;28;45234;-47
2022/04/14 07:36:22;;;;;;;;;36.33;32.00;;;;;16.89;64.90;101852.84;5056996;28;45285;-42
2022/04/14 07:38:48;;;;;;;;;44.67;32.33;;;;;16.86;64.92;101855.88;5057223;28;45189;-43
2022/04/14 07:41:13;;;;;;;;;34.33;29.67;;;;;16.82;65.23;101857.22;5056866;28;46284;-45
2022/04/14 07:43:39;;;;;;;;;34.67;31.00;;;;;16.79;65.16;101859.38;5056935;28;45343;-43
2022/04/14 07:46:04;;;;;;;;;32.00;29.67;;;;;16.83;65.10;101852.66;5057081;28;45397;-46
2022/04/14 07:48:30;;;;;;;;;34.00;28.67;;;;;16.92;65.16;101862.44;5057185;28;45411;-46
2022/04/14 07:50:55;;;;;;;;;34.33;32.00;;;;;17.00;64.70;101862.50;5056857;28;46317;-46
2022/04/14 07:53:21;;;;;;;;;39.33;34.00;;;;;17.06;64.15;101864.50;5056715;28;45407;-43
2022/04/14 07:55:46;;;;;;;;;31.67;23.00;;;;;17.14;63.92;101863.72;5057134;28;45337;-43
2022/04/14 07:58:11;;;;;;;;;40.00;33.00;;;;;17.22;63.81;101869.13;5056852;28;45567;-43
2022/04/14 08:00:39;;;;;;;;;36.67;29.00;;;;;17.30;63.42;101862.94;5056670;28;45260;-44
2022/04/14 08:03:06;;;;;;;;;30.67;27.33;;;;;17.44;63.25;101864.97;5056450;28;45303;-46
2022/04/14 08:05:34;;;;;;;;;36.67;30.00;;;;;17.64;62.51;101852.06;5059572;28;45363;-43
2022/04/14 08:08:02;;;;;;;;;26.00;26.00;;;;;18.01;61.62;101856.19;5060150;28;45588;-45
2022/04/14 08:10:27;;;;;;;;;29.33;27.33;;;;;19.82;58.38;101855.38;5060300;28;46360;-45
2022/04/14 08:12:53;;;;;;;;;31.33;30.33;;;;;20.13;55.91;101852.59;5060085;28;45238;-44
2022/04/14 08:15:18;;;;;;;;;26.67;26.67;;;;;20.03;55.93;101854.72;5060519;28;45464;-44
2022/04/14 08:17:44;;;;;;;;;35.00;30.67;;;;;19.93;55.98;101850.41;5060557;28;45327;-49
2022/04/14 08:20:12;;;;;;;;;41.67;35.00;;;;;20.13;56.66;101858.81;5060062;28;46212;-45
2022/04/14 08:22:50;;;;;;;;;35.33;30.67;;;;;20.82;55.78;101855.13;5060115;28;45233;-43
2022/04/14 08:25:20;;;;;;;;;42.33;32.33;;;;;21.68;52.62;101850.75;5060054;28;45439;-43
2022/04/14 08:27:47;;;;;;;;;39.00;34.00;;;;;22.50;52.11;101852.94;5060195;28;45715;-44
2022/04/14 08:30:16;;;;;;;;;24.67;20.00;;;;;23.30;50.35;101861.50;5059925;28;46208;-44
2022/04/14 08:32:43;;;;;;;;;34.67;28.00;;;;;24.01;48.89;101853.72;5059771;28;45373;-47
2022/04/14 08:35:10;;;;;;;;;36.00;29.33;;;;;24.70;45.90;101852.44;5058843;28;45325;-43
2022/04/14 08:37:36;;;;;;;;;32.75;30.00;;;;;25.53;43.87;101862.53;5060193;28;45238;-42
2022/04/14 08:40:03;;;;;;;;;32.00;29.00;;;;;26.21;43.11;101859.13;5059761;28;47033;-47
2022/04/14 08:42:42;;;;;;;;;38.75;29.25;;;;;26.95;41.36;101855.44;5060087;28;45381;-44
2022/04/14 08:45:11;;;;;;;;;31.75;28.50;;;;;27.96;40.36;101856.59;5060156;28;45431;-46
2022/04/14 08:47:39;;;;;;;;;34.50;30.25;;;;;29.52;37.92;101855.91;5059831;28;45175;-46
2022/04/14 08:50:05;;;;;;;;;30.50;26.50;;;;;31.65;34.06;101843.56;5059607;28;45336;-44
2022/04/14 08:52:34;;;;;;;;;26.50;25.25;;;;;33.72;30.78;101846.84;5059586;28;45358;-48
2022/04/14 08:55:02;;;;;;;;;31.60;30.80;;;;;35.25;27.36;101843.69;5059419;28;45319;-46
2022/04/14 08:57:28;;;;;;;;;27.00;24.60;;;;;36.54;26.29;101840.69;5059624;28;45382;-42
2022/04/14 08:59:56;;;;;;;;;25.20;25.20;;;;;37.63;25.12;101845.25;5059241;28;45531;-49
2022/04/14 09:02:23;;;;;;;;;29.00;22.40;;;;;38.58;24.03;101848.56;5059102;28;45356;-42
2022/04/14 09:04:51;;;;;;;;;27.40;24.40;;;;;39.36;21.82;101839.09;5059645;28;45340;-42
2022/04/14 09:07:17;;;;;;;;;27.40;23.20;;;;;40.08;20.99;101845.63;5059739;28;45261;-46
2022/04/14 09:09:44;;;;;;;;;26.75;22.25;;;;;40.97;23.05;101836.13;5059054;28;45951;-47
2022/04/14 09:12:10;;;;;;;;;24.20;20.00;;;;;41.52;19.80;101843.03;5059292;28;45405;-45
2022/04/14 09:14:37;;;;;;;;;22.80;22.80;;;;;42.06;18.50;101847.06;5059387;28;45344;-45
2022/04/14 09:17:07;;;;;;;;;24.20;21.00;;;;;42.46;18.28;101841.13;5058807;28;45442;-45
2022/04/14 09:19:34;;;;;;;;;21.20;18.80;;;;;43.12;18.69;101846.19;5059205;28;47208;-45
2022/04/14 09:22:02;;;;;;;;;20.80;18.80;;;;;43.69;16.42;101839.06;5059087;28;45316;-44
2022/04/14 09:24:40;;;;;;;;;22.40;21.00;;;;;44.09;16.89;101839.28;5074584;28;45512;-44
2022/04/14 09:27:06;;;;;;;;;17.80;15.80;;;;;44.79;15.74;101841.97;5059464;28;45239;-47
2022/04/14 09:29:31;;;;;;;;;17.80;16.60;;;;;45.49;16.16;101838.88;5058802;28;45376;-48
2022/04/14 09:31:57;;;;;;;;;20.50;18.50;;;;;45.72;15.66;101834.28;5058845;28;45205;-44
2022/04/14 09:34:48;;;;;;;;;23.25;19.00;;;;;46.02;14.75;101839.50;5059201;28;45261;-45
2022/04/14 09:37:15;;;;;;;;;20.40;19.40;;;;;46.17;13.98;101847.09;5059194;28;45209;-45
2022/04/14 09:39:56;;;;;;;;;18.00;18.00;;;;;46.45;16.52;101843.38;5058900;28;45475;-45
2022/04/14 09:42:23;;;;;;;;;22.20;20.40;;;;;46.68;15.55;101841.53;5058804;28;45455;-48
2022/04/14 09:44:51;;;;;;;;;19.40;19.40;;;;;46.81;15.01;101830.13;5059060;28;45467;-46
2022/04/14 09:47:23;;;;;;;;;20.80;19.60;;;;;46.66;15.17;101838.28;5059081;28;45407;-44
2022/04/14 09:49:48;;;;;;;;;21.80;20.20;;;;;46.91;13.79;101844.47;5058597;28;46271;-46
2022/04/14 09:52:14;;;;;;;;;16.75;15.50;;;;;47.10;13.91;101829.56;5058667;28;45372;-45
2022/04/14 09:54:40;;;;;;;;;17.50;17.00;;;;;47.18;14.36;101831.34;5058425;28;46409;-47
2022/04/14 09:57:10;;;;;;;;;16.80;16.80;;;;;47.29;13.97;101830.78;5058861;28;45451;-45
2022/04/14 09:59:37;;;;;;;;;17.20;16.80;;;;;47.19;14.31;101832.97;5058524;28;45318;-45
2022/04/14 10:02:13;;;;;;;;;15.40;12.60;;;;;47.15;13.37;101834.91;5058217;28;45339;-48
2022/04/14 10:04:47;;;;;;;;;13.80;13.00;;;;;47.48;12.23;101837.19;5058559;28;45244;-50
2022/04/14 10:07:17;;;;;;;;;11.60;11.00;;;;;47.53;13.58;101832.44;5058587;28;45483;-45
2022/04/14 10:09:45;;;;;;;;;12.60;11.40;;;;;47.75;12.77;101837.34;5058299;28;45377;-48
2022/04/14 10:12:17;;;;;;;;;10.20;10.00;;;;;47.91;14.42;101838.00;5058441;28;45471;-50
2022/04/14 10:14:56;;;;;;;;;12.00;10.40;;;;;47.92;13.12;101833.19;5058417;28;45340;-47
2022/04/14 10:17:24;;;;;;;;;11.60;9.60;;;;;47.99;12.08;101836.13;5058744;28;45317;-45
2022/04/14 10:19:51;;;;;;;;;9.00;9.00;;;;;47.99;13.78;101827.66;5058409;28;45432;-44
2022/04/14 10:22:16;;;;;;;;;10.00;10.00;;;;;48.08;11.82;101827.41;5058363;28;45266;-44
2022/04/14 10:24:43;;;;;;;;;11.00;10.75;;;;;48.26;12.01;101825.72;5058277;28;45452;-45
2022/04/14 10:27:09;;;;;;;;;11.00;10.40;;;;;48.61;13.39;101821.81;5057920;28;45329;-44
2022/04/14 10:29:37;;;;;;;;;7.00;7.00;;;;;48.88;10.79;101819.75;5057327;28;46200;-44
2022/04/14 10:32:03;;;;;;;;;10.80;10.40;;;;;49.03;11.00;101815.09;5058228;28;45514;-44
2022/04/14 10:34:30;;;;;;;;;9.00;9.00;;;;;49.27;11.48;101817.44;5058275;28;45262;-44
2022/04/14 10:36:56;;;;;;;;;8.80;8.80;;;;;49.51;11.31;101812.44;5058378;28;45151;-45
2022/04/14 10:39:23;;;;;;;;;10.00;7.80;;;;;49.62;11.49;101807.72;5057829;28;45483;-44
2022/04/14 10:41:52;;;;;;;;;9.80;7.40;;;;;49.51;11.21;101812.44;5057872;28;45274;-46
2022/04/14 10:44:21;;;;;;;;;9.80;9.80;;;;;49.10;11.23;101803.91;5058102;27;45352;-52
2022/04/14 10:46:50;;;;;;;;;11.80;10.20;;;;;49.28;10.32;101804.94;5058331;27;45623;-51
2022/04/14 10:49:25;;;;;;;;;15.60;14.00;;;;;49.52;10.21;101792.28;5057891;28;45413;-43
2022/04/14 10:51:53;;;;;;;;;11.60;11.60;;;;;49.21;12.02;101783.03;5057821;28;45402;-51
2022/04/14 10:54:19;;;;;;;;;11.40;8.40;;;;;49.58;10.54;101804.84;5073627;27;45281;-48
2022/04/14 10:56:50;;;;;;;;;9.20;9.20;;;;;49.70;13.18;101807.38;5057918;28;45267;-53
2022/04/14 10:59:19;;;;;;;;;7.60;7.60;;;;;49.88;10.36;101801.09;5057774;28;46161;-45
2022/04/14 11:01:50;;;;;;;;;13.00;10.80;;;;;49.65;11.48;101807.75;5057478;28;45254;-44
2022/04/14 11:04:30;;;;;;;;;15.00;13.20;;;;;49.66;10.83;101803.72;5057596;28;45352;-45
2022/04/14 11:06:59;;;;;;;;;12.60;12.60;;;;;49.57;11.69;101806.06;5057865;28;45313;-43
2022/04/14 11:09:42;;;;;;;;;9.20;9.20;;;;;49.40;11.86;101801.00;5057440;28;46256;-44